Time;durP1;ratioP1;P1;durP2;ratioP2;P2;SDS_P1;SDS_P2;PMS_P1;PMS_P2;Temp;Humidity;BMP_temperature;BMP_pressure;BME280_temperature;BME280_humidity;BME280_pressure;Samples;Min_cycle;Max_cycle;Signal;HPM_P1;HPM_P2
2023/12/19 00:01:32;;;;;;;10.27;6.13;;;1.30;99.90;;;;;;5052407;28;20200;-78
2023/12/19 00:03:59;;;;;;;6.35;5.63;;;1.30;99.90;;;;;;5055350;28;20207;-78
2023/12/19 00:06:27;;;;;;;7.70;5.90;;;1.60;99.90;;;;;;5053348;28;20597;-79
2023/12/19 00:08:54;;;;;;;11.02;7.88;;;1.60;99.90;;;;;;5057752;28;20230;-79
2023/12/19 00:11:20;;;;;;;8.20;7.20;;;1.70;99.90;;;;;;5055918;28;20327;-78
2023/12/19 00:13:47;;;;;;;9.13;5.97;;;1.60;99.90;;;;;;5052877;28;20204;-79
2023/12/19 00:16:16;;;;;;;7.13;5.80;;;1.50;99.90;;;;;;5056993;28;20600;-79
2023/12/19 00:18:43;;;;;;;6.60;5.93;;;1.40;99.90;;;;;;5052406;28;20204;-78
2023/12/19 00:21:10;;;;;;;11.70;6.28;;;1.40;99.90;;;;;;5057781;28;20213;-79
2023/12/19 00:23:38;;;;;;;6.75;5.18;;;1.40;99.90;;;;;;5054197;28;20218;-79
2023/12/19 00:26:05;;;;;;;6.47;4.95;;;1.40;99.90;;;;;;5051812;28;20205;-79
2023/12/19 00:28:32;;;;;;;5.30;5.00;;;1.30;99.90;;;;;;5049052;28;20583;-78
2023/12/19 00:30:59;;;;;;;6.15;5.28;;;1.30;99.90;;;;;;5049415;28;20216;-78
2023/12/19 00:33:26;;;;;;;11.13;6.85;;;1.30;99.90;;;;;;5048615;28;20552;-79
2023/12/19 00:35:53;;;;;;;5.85;4.72;;;1.20;99.90;;;;;;5056673;28;20564;-79
2023/12/19 00:38:19;;;;;;;10.23;5.43;;;1.30;99.90;;;;;;5054773;28;20583;-79
2023/12/19 00:40:47;;;;;;;8.55;4.93;;;1.40;99.90;;;;;;5054805;28;20521;-78
2023/12/19 00:43:14;;;;;;;7.25;5.20;;;1.50;99.90;;;;;;5052907;28;20206;-79
2023/12/19 00:45:41;;;;;;;4.60;4.15;;;1.40;99.90;;;;;;5051598;28;20203;-78
2023/12/19 00:48:08;;;;;;;5.10;4.60;;;1.40;99.90;;;;;;5051699;28;20224;-79
2023/12/19 00:50:34;;;;;;;5.63;5.13;;;1.50;99.90;;;;;;5057716;28;20215;-78
2023/12/19 00:53:01;;;;;;;6.05;4.55;;;1.50;99.90;;;;;;5051061;28;20325;-79
2023/12/19 00:55:28;;;;;;;7.25;4.63;;;1.60;99.90;;;;;;5059112;28;20235;-78
2023/12/19 00:57:56;;;;;;;3.85;3.55;;;1.60;99.90;;;;;;5049178;28;20295;-78
2023/12/19 01:00:23;;;;;;;3.35;2.72;;;1.50;99.90;;;;;;5055589;28;20209;-78
2023/12/19 01:02:50;;;;;;;4.72;3.13;;;1.50;99.90;;;;;;5054914;28;20214;-78
2023/12/19 01:05:16;;;;;;;3.20;2.85;;;1.60;99.90;;;;;;5053511;28;20479;-79
2023/12/19 01:07:43;;;;;;;2.67;2.47;;;1.60;99.90;;;;;;5057494;28;20295;-79
2023/12/19 01:10:10;;;;;;;4.75;3.13;;;1.60;99.90;;;;;;5049959;28;20324;-78
2023/12/19 01:12:37;;;;;;;4.05;3.65;;;1.60;99.90;;;;;;5047820;28;20669;-78
2023/12/19 01:15:06;;;;;;;3.95;3.13;;;1.60;99.90;;;;;;5050574;28;20212;-79
2023/12/19 01:17:33;;;;;;;2.60;2.40;;;1.60;99.90;;;;;;5056438;28;20286;-79
2023/12/19 01:20:00;;;;;;;4.07;3.65;;;1.60;99.90;;;;;;5053471;28;20204;-78
2023/12/19 01:22:26;;;;;;;4.57;2.95;;;1.70;99.90;;;;;;5049202;28;20246;-79
2023/12/19 01:24:53;;;;;;;5.50;4.03;;;1.70;99.90;;;;;;5049594;28;20230;-79
2023/12/19 01:27:21;;;;;;;3.00;2.47;;;1.60;99.90;;;;;;5050993;28;20213;-78
2023/12/19 01:29:48;;;;;;;3.38;2.75;;;1.60;99.90;;;;;;5050228;28;20251;-78
2023/12/19 01:32:16;;;;;;;4.82;3.65;;;1.60;99.90;;;;;;5047004;28;20637;-78
2023/12/19 01:34:42;;;;;;;1.90;1.75;;;1.60;99.90;;;;;;5049050;28;20211;-79
2023/12/19 01:37:09;;;;;;;1.83;1.73;;;1.60;99.90;;;;;;5055650;28;20220;-78
2023/12/19 01:39:36;;;;;;;2.20;2.10;;;1.60;99.90;;;;;;5048883;28;20203;-79
2023/12/19 01:42:03;;;;;;;2.65;2.45;;;1.60;99.90;;;;;;5059022;28;20211;-79
2023/12/19 01:44:30;;;;;;;4.43;3.47;;;1.60;99.90;;;;;;5054817;28;20536;-78
2023/12/19 01:46:57;;;;;;;2.78;2.13;;;1.60;99.90;;;;;;5049482;28;20216;-78
2023/12/19 01:49:25;;;;;;;3.90;2.50;;;1.60;99.90;;;;;;5057669;28;20227;-79
2023/12/19 01:51:52;;;;;;;2.60;2.38;;;1.50;99.90;;;;;;5052501;28;20259;-78
2023/12/19 01:54:21;;;;;;;5.57;2.38;;;1.50;99.90;;;;;;5051361;28;20212;-78
2023/12/19 01:56:48;;;;;;;3.17;2.38;;;1.40;99.90;;;;;;5051423;28;20504;-78
2023/12/19 01:59:16;;;;;;;3.30;2.70;;;1.40;99.90;;;;;;5048195;28;20205;-79
2023/12/19 02:01:43;;;;;;;3.08;2.85;;;1.30;99.90;;;;;;5046818;28;20215;-79
2023/12/19 02:04:11;;;;;;;4.13;2.05;;;1.40;99.90;;;;;;5052276;28;20210;-78
2023/12/19 02:06:39;;;;;;;3.83;3.20;;;1.30;99.90;;;;;;5049613;28;20646;-78
2023/12/19 02:09:07;;;;;;;4.65;2.95;;;1.40;99.90;;;;;;5055244;28;20651;-78
2023/12/19 02:11:34;;;;;;;7.55;3.30;;;1.30;99.90;;;;;;5052322;28;20232;-78
2023/12/19 02:14:02;;;;;;;3.97;2.65;;;1.40;99.90;;;;;;5052977;28;20670;-78
2023/12/19 02:16:29;;;;;;;5.25;2.40;;;1.20;99.90;;;;;;5051835;28;20680;-78
2023/12/19 02:19:01;;;;;;;4.32;2.00;;;1.10;99.90;;;;;;5052608;28;20275;-78
2023/12/19 02:21:29;;;;;;;3.22;2.45;;;1.20;99.90;;;;;;5051170;28;20237;-78
2023/12/19 02:23:58;;;;;;;3.55;2.70;;;1.30;99.90;;;;;;5052658;28;20735;-78
2023/12/19 02:26:29;;;;;;;4.25;2.63;;;1.20;99.90;;;;;;5054241;28;20682;-78
2023/12/19 02:28:57;;;;;;;3.08;2.13;;;1.30;99.90;;;;;;5046225;28;20713;-78
2023/12/19 02:31:27;;;;;;;4.00;3.70;;;1.20;99.90;;;;;;5049792;28;20290;-78
2023/12/19 02:33:55;;;;;;;4.40;2.90;;;1.20;99.90;;;;;;5052395;28;20222;-79
2023/12/19 02:36:23;;;;;;;4.03;2.20;;;1.10;99.90;;;;;;5052790;28;20609;-79
2023/12/19 02:38:51;;;;;;;2.92;2.13;;;1.10;99.90;;;;;;5053004;28;20203;-79
2023/12/19 02:41:20;;;;;;;2.05;1.85;;;1.30;99.90;;;;;;5053424;28;20255;-79
2023/12/19 02:43:47;;;;;;;2.00;1.90;;;1.20;99.90;;;;;;5060191;28;20204;-79
2023/12/19 02:46:15;;;;;;;2.30;1.92;;;1.10;99.90;;;;;;5058590;28;20238;-78
2023/12/19 02:48:41;;;;;;;2.80;1.95;;;1.00;99.90;;;;;;5053159;28;20560;-79
2023/12/19 02:51:08;;;;;;;2.40;2.20;;;1.10;99.90;;;;;;5055358;28;20673;-78
2023/12/19 02:53:35;;;;;;;1.30;1.20;;;1.10;99.90;;;;;;5054703;28;20202;-78
2023/12/19 02:56:02;;;;;;;1.70;1.60;;;1.40;99.90;;;;;;5051261;28;20701;-78
2023/12/19 02:58:31;;;;;;;2.30;2.10;;;1.30;99.90;;;;;;5049734;28;20626;-78
2023/12/19 03:00:58;;;;;;;1.40;1.30;;;1.30;99.90;;;;;;5049903;28;20262;-79
2023/12/19 03:03:26;;;;;;;2.20;1.55;;;1.40;99.90;;;;;;5049813;28;20208;-78
2023/12/19 03:05:52;;;;;;;2.53;1.48;;;1.70;99.80;;;;;;5049970;28;20621;-78
2023/12/19 03:08:20;;;;;;;1.67;1.58;;;1.80;99.10;;;;;;5050976;28;20211;-78
2023/12/19 03:10:47;;;;;;;1.73;1.63;;;1.80;99.60;;;;;;5050769;28;20220;-78
2023/12/19 03:13:14;;;;;;;3.33;2.13;;;1.80;99.60;;;;;;5050812;28;20209;-78
2023/12/19 03:15:42;;;;;;;2.45;1.60;;;1.80;99.60;;;;;;5054089;28;20197;-78
2023/12/19 03:18:09;;;;;;;1.42;1.33;;;1.70;99.80;;;;;;5055313;28;20457;-78
2023/12/19 03:20:36;;;;;;;2.03;1.10;;;1.80;99.90;;;;;;5056780;28;20277;-78
2023/12/19 03:23:03;;;;;;;1.60;1.50;;;1.60;99.90;;;;;;5056752;28;20641;-79
2023/12/19 03:25:29;;;;;;;2.25;1.42;;;1.60;99.90;;;;;;5061861;28;20204;-79
2023/12/19 03:27:56;;;;;;;2.15;1.80;;;1.50;99.90;;;;;;5051637;28;20205;-79
2023/12/19 03:30:23;;;;;;;2.25;1.90;;;1.50;99.90;;;;;;5050066;28;20606;-78
2023/12/19 03:32:51;;;;;;;1.63;1.52;;;1.50;99.90;;;;;;5050812;28;20310;-78
2023/12/19 03:35:18;;;;;;;1.70;1.35;;;1.40;99.90;;;;;;5053593;28;20660;-78
2023/12/19 03:37:45;;;;;;;1.48;1.38;;;1.50;99.90;;;;;;5050455;28;20208;-79
2023/12/19 03:40:11;;;;;;;2.50;2.10;;;1.40;99.90;;;;;;5055276;28;20875;-79
2023/12/19 03:42:38;;;;;;;4.20;1.27;;;1.20;99.90;;;;;;5052076;28;20215;-79
2023/12/19 03:45:06;;;;;;;1.35;1.25;;;1.00;99.90;;;;;;5058345;28;20206;-79
2023/12/19 03:47:33;;;;;;;1.95;1.60;;;1.00;99.90;;;;;;5062008;28;20207;-78
2023/12/19 03:50:02;;;;;;;2.00;1.17;;;1.00;99.90;;;;;;5065584;28;20722;-78
2023/12/19 03:52:31;;;;;;;2.83;1.73;;;1.00;99.90;;;;;;5061851;28;20203;-78
2023/12/19 03:55:00;;;;;;;2.30;1.58;;;1.10;99.90;;;;;;5060712;28;20461;-78
2023/12/19 03:57:28;;;;;;;2.17;1.50;;;1.00;99.90;;;;;;5064327;28;20282;-78
2023/12/19 03:59:56;;;;;;;1.08;1.02;;;1.10;99.90;;;;;;5057330;28;20648;-78
2023/12/19 04:02:23;;;;;;;3.92;1.58;;;1.10;99.90;;;;;;5051878;28;20303;-78
2023/12/19 04:04:51;;;;;;;2.95;1.60;;;1.00;99.90;;;;;;5053346;28;20275;-78
2023/12/19 04:07:19;;;;;;;1.77;1.67;;;1.00;99.90;;;;;;5054635;28;20278;-79
2023/12/19 04:09:47;;;;;;;1.42;1.33;;;1.00;99.90;;;;;;5057482;28;20581;-79
2023/12/19 04:12:15;;;;;;;1.48;1.20;;;1.00;99.90;;;;;;5057156;28;20207;-78
2023/12/19 04:14:43;;;;;;;2.20;2.00;;;1.00;99.90;;;;;;5057182;28;20207;-79
2023/12/19 04:17:11;;;;;;;1.67;1.58;;;0.90;99.90;;;;;;5051299;28;20227;-78
2023/12/19 04:19:40;;;;;;;2.00;1.75;;;1.00;99.90;;;;;;5057313;28;20260;-79
2023/12/19 04:22:08;;;;;;;4.28;2.33;;;0.90;99.90;;;;;;5053564;28;20486;-79
2023/12/19 04:24:36;;;;;;;3.88;1.90;;;0.90;99.90;;;;;;5052174;28;20287;-79
2023/12/19 04:27:04;;;;;;;1.55;1.45;;;0.90;99.90;;;;;;5054959;28;20230;-79
2023/12/19 04:29:31;;;;;;;2.60;2.33;;;0.80;99.90;;;;;;5063806;28;20243;-78
2023/12/19 04:31:58;;;;;;;1.55;1.45;;;0.80;99.90;;;;;;5066560;28;20211;-79
2023/12/19 04:34:26;;;;;;;2.28;2.08;;;0.70;99.90;;;;;;5067855;28;20203;-79
2023/12/19 04:36:53;;;;;;;1.67;1.00;;;0.70;99.90;;;;;;5067582;28;20445;-79
2023/12/19 04:39:21;;;;;;;4.65;1.98;;;0.80;99.90;;;;;;5072802;28;20290;-79
2023/12/19 04:41:49;;;;;;;2.08;1.67;;;0.80;99.90;;;;;;5066963;28;20238;-79
2023/12/19 04:44:15;;;;;;;1.75;1.65;;;0.90;99.90;;;;;;5069282;28;20199;-79
2023/12/19 04:46:43;;;;;;;3.20;1.90;;;0.90;99.90;;;;;;5072602;28;20281;-79
2023/12/19 04:49:10;;;;;;;1.60;1.50;;;0.90;99.90;;;;;;5065991;28;20669;-79
2023/12/19 04:51:36;;;;;;;3.25;2.10;;;0.90;99.90;;;;;;5069413;28;20238;-79
2023/12/19 04:54:05;;;;;;;4.03;1.50;;;0.90;99.90;;;;;;5067924;28;20210;-78
2023/12/19 04:56:32;;;;;;;3.03;2.03;;;1.10;99.90;;;;;;5068259;28;20213;-78
2023/12/19 04:59:00;;;;;;;2.40;1.98;;;1.10;99.90;;;;;;5066132;28;20663;-78
2023/12/19 05:01:27;;;;;;;1.73;1.40;;;1.20;99.90;;;;;;5071257;28;20202;-78
2023/12/19 05:03:54;;;;;;;1.95;1.48;;;1.20;99.90;;;;;;5067685;28;20201;-78
2023/12/19 05:06:20;;;;;;;2.38;2.10;;;1.20;99.90;;;;;;5069279;28;20213;-78
2023/12/19 05:08:48;;;;;;;2.20;2.00;;;1.20;99.90;;;;;;5074013;28;20211;-79
2023/12/19 05:11:15;;;;;;;1.55;1.20;;;1.20;99.90;;;;;;5073315;28;20219;-78
2023/12/19 05:13:41;;;;;;;1.48;1.38;;;1.20;99.90;;;;;;5072578;28;20660;-78
2023/12/19 05:16:14;;;;;;;1.58;1.48;;;1.20;99.90;;;;;;5067599;28;20635;-79
2023/12/19 05:18:41;;;;;;;1.92;1.70;;;1.30;99.90;;;;;;5065480;28;20287;-78
2023/12/19 05:21:09;;;;;;;1.30;1.20;;;1.40;99.90;;;;;;5060423;28;20221;-79
2023/12/19 05:23:36;;;;;;;1.65;1.38;;;1.40;99.90;;;;;;5071147;28;20207;-79
2023/12/19 05:26:03;;;;;;;1.92;1.83;;;1.40;99.60;;;;;;5073732;28;20255;-79
2023/12/19 05:28:30;;;;;;;1.80;1.70;;;1.40;99.60;;;;;;5073126;28;20255;-79
2023/12/19 05:30:58;;;;;;;2.13;1.92;;;1.40;99.70;;;;;;5070869;28;20725;-79
2023/12/19 05:33:27;;;;;;;1.55;1.45;;;1.40;99.70;;;;;;5062480;28;20203;-79
2023/12/19 05:35:54;;;;;;;1.98;1.45;;;1.40;99.80;;;;;;5063827;28;20241;-79
2023/12/19 05:38:21;;;;;;;3.80;2.25;;;1.40;99.80;;;;;;5065855;28;20218;-79
2023/12/19 05:40:48;;;;;;;1.35;1.30;;;1.50;99.20;;;;;;5071014;28;20211;-78
2023/12/19 05:43:15;;;;;;;1.95;1.85;;;1.40;99.10;;;;;;5064891;28;20303;-80
2023/12/19 05:45:42;;;;;;;2.30;2.10;;;1.60;98.90;;;;;;5065978;28;20736;-79
2023/12/19 05:48:09;;;;;;;3.63;2.28;;;1.50;99.00;;;;;;5063591;28;20740;-78
2023/12/19 05:50:37;;;;;;;4.40;2.08;;;1.40;99.10;;;;;;5067485;28;20604;-77
2023/12/19 05:53:04;;;;;;;1.50;1.38;;;1.50;99.20;;;;;;5068555;28;20234;-78
2023/12/19 05:55:31;;;;;;;2.10;2.00;;;1.50;99.00;;;;;;5065303;28;20205;-77
2023/12/19 05:57:58;;;;;;;1.52;1.42;;;1.40;99.00;;;;;;5068647;28;20199;-78
2023/12/19 06:00:25;;;;;;;1.95;1.75;;;1.40;98.70;;;;;;5073358;28;20208;-78
2023/12/19 06:02:51;;;;;;;3.15;2.42;;;1.40;98.80;;;;;;5066512;28;20246;-77
2023/12/19 06:05:19;;;;;;;2.08;1.98;;;1.40;98.90;;;;;;5066287;28;20208;-76
2023/12/19 06:07:47;;;;;;;5.22;3.15;;;1.30;98.90;;;;;;5066007;28;20210;-75
2023/12/19 06:10:15;;;;;;;3.03;2.60;;;1.30;99.30;;;;;;5066146;28;20645;-75
2023/12/19 06:12:42;;;;;;;2.13;1.15;;;1.30;99.20;;;;;;5072456;28;20238;-77
2023/12/19 06:15:13;;;;;;;3.45;2.15;;;1.30;99.10;;;;;;5071227;28;20199;-76
2023/12/19 06:17:41;;;;;;;2.97;2.10;;;1.30;99.40;;;;;;5065572;28;20240;-77
2023/12/19 06:20:09;;;;;;;2.55;2.15;;;1.20;99.40;;;;;;5065892;28;20209;-79
2023/12/19 06:22:36;;;;;;;1.65;1.55;;;1.20;99.40;;;;;;5061613;28;20215;-78
2023/12/19 06:25:06;;;;;;;5.10;1.45;;;1.10;99.40;;;;;;5065728;28;20217;-77
2023/12/19 06:27:33;;;;;;;2.72;2.53;;;1.10;99.40;;;;;;5067354;28;20214;-78
2023/12/19 06:30:00;;;;;;;3.35;2.50;;;1.10;99.40;;;;;;5070496;28;20294;-75
2023/12/19 06:32:27;;;;;;;4.05;3.75;;;1.10;99.40;;;;;;5066178;28;20199;-76
2023/12/19 06:34:55;;;;;;;2.22;2.03;;;1.10;99.30;;;;;;5065347;28;20609;-81
2023/12/19 06:37:22;;;;;;;2.65;1.40;;;1.10;99.10;;;;;;5066444;28;20613;-77
2023/12/19 06:39:49;;;;;;;2.10;1.90;;;1.00;99.20;;;;;;5065795;28;20654;-77
2023/12/19 06:42:17;;;;;;;2.03;1.90;;;1.00;99.40;;;;;;5065729;28;20208;-79
2023/12/19 06:44:45;;;;;;;2.17;1.90;;;1.00;99.40;;;;;;5068332;28;20754;-77
2023/12/19 06:47:14;;;;;;;3.55;2.95;;;0.80;99.30;;;;;;5067472;28;20207;-77
2023/12/19 06:49:40;;;;;;;2.75;2.13;;;0.70;99.70;;;;;;5073041;28;20426;-77
2023/12/19 06:52:07;;;;;;;2.75;2.08;;;0.70;99.80;;;;;;5069703;28;20310;-77
2023/12/19 06:54:37;;;;;;;3.83;3.05;;;0.60;99.50;;;;;;5069465;28;20210;-76
2023/12/19 06:57:04;;;;;;;1.60;1.50;;;0.70;99.90;;;;;;5069547;28;20207;-77
2023/12/19 06:59:33;;;;;;;5.30;2.95;;;0.80;99.90;;;;;;5071719;28;20223;-77
2023/12/19 07:02:00;;;;;;;2.78;2.47;;;0.80;99.90;;;;;;5067378;28;20203;-77
2023/12/19 07:04:27;;;;;;;4.38;2.65;;;0.80;99.90;;;;;;5069548;28;20277;-77
2023/12/19 07:06:54;;;;;;;6.25;3.42;;;0.80;99.90;;;;;;5071379;28;20215;-77
2023/12/19 07:09:21;;;;;;;4.72;3.88;;;0.80;99.90;;;;;;5070368;28;20207;-77
2023/12/19 07:11:48;;;;;;;3.63;3.33;;;0.80;99.90;;;;;;5070350;28;20227;-78
2023/12/19 07:14:14;;;;;;;4.72;4.25;;;0.80;99.90;;;;;;5076510;28;20566;-77
2023/12/19 07:16:43;;;;;;;3.75;3.45;;;0.70;99.90;;;;;;5075699;28;20207;-77
2023/12/19 07:19:10;;;;;;;4.97;3.65;;;0.80;99.90;;;;;;5068971;28;20248;-77
2023/12/19 07:21:37;;;;;;;4.68;3.63;;;0.80;99.90;;;;;;5064157;28;20208;-77
2023/12/19 07:24:04;;;;;;;2.85;2.65;;;0.80;99.90;;;;;;5072232;28;20201;-77
2023/12/19 07:26:31;;;;;;;6.90;3.60;;;0.70;99.90;;;;;;5075922;28;20258;-77
2023/12/19 07:28:59;;;;;;;4.47;3.65;;;0.50;99.90;;;;;;5070742;28;20202;-77
2023/12/19 07:31:30;;;;;;;4.80;4.32;;;0.50;99.90;;;;;;5072920;28;20219;-79
2023/12/19 07:34:00;;;;;;;4.18;3.78;;;0.50;99.90;;;;;;5069841;28;20208;-77
2023/12/19 07:36:27;;;;;;;8.65;5.00;;;0.40;99.90;;;;;;5073215;28;20204;-78
2023/12/19 07:38:55;;;;;;;5.50;3.70;;;0.20;99.90;;;;;;5071995;28;20203;-77
2023/12/19 07:41:23;;;;;;;4.88;3.50;;;0.10;99.90;;;;;;5069043;28;20207;-78
2023/12/19 07:43:50;;;;;;;6.45;4.55;;;0.10;99.90;;;;;;5068089;28;20778;-78
2023/12/19 07:46:17;;;;;;;5.38;4.15;;;0.10;99.90;;;;;;5069894;28;20206;-78
2023/12/19 07:48:44;;;;;;;5.43;3.35;;;0.20;99.90;;;;;;5070943;28;20210;-78
2023/12/19 07:51:16;;;;;;;3.95;3.58;;;0.20;99.90;;;;;;5070381;28;20648;-77
2023/12/19 07:53:43;;;;;;;5.25;4.10;;;0.20;99.90;;;;;;5070157;28;20266;-78
2023/12/19 07:56:10;;;;;;;3.35;3.05;;;0.30;99.90;;;;;;5069279;28;20251;-78
2023/12/19 07:58:36;;;;;;;6.55;4.13;;;0.30;99.90;;;;;;5068152;28;20217;-78
2023/12/19 08:01:04;;;;;;;6.53;4.50;;;0.30;99.90;;;;;;5069988;28;20486;-78
2023/12/19 08:03:31;;;;;;;6.90;5.13;;;0.40;99.90;;;;;;5068354;28;20375;-78
2023/12/19 08:05:58;;;;;;;4.30;3.92;;;0.40;99.90;;;;;;5073416;28;20227;-78
2023/12/19 08:08:27;;;;;;;5.32;4.78;;;0.40;99.90;;;;;;5068398;28;20207;-78
2023/12/19 08:10:54;;;;;;;8.80;4.13;;;0.50;99.90;;;;;;5069194;28;20314;-78
2023/12/19 08:13:21;;;;;;;4.90;4.07;;;0.50;99.90;;;;;;5071679;28;20203;-78
2023/12/19 08:15:48;;;;;;;8.90;4.45;;;0.60;99.90;;;;;;5067148;28;20290;-78
2023/12/19 08:18:15;;;;;;;6.20;4.43;;;0.50;99.90;;;;;;5068194;28;20200;-78
2023/12/19 08:20:42;;;;;;;9.77;6.72;;;0.60;99.90;;;;;;5067341;28;20266;-78
2023/12/19 08:23:09;;;;;;;5.20;4.68;;;0.70;99.90;;;;;;5062735;28;20583;-78
2023/12/19 08:25:38;;;;;;;11.48;6.35;;;0.70;99.90;;;;;;5067407;28;20220;-78
2023/12/19 08:28:05;;;;;;;8.27;5.38;;;0.70;99.90;;;;;;5067920;28;20242;-78
2023/12/19 08:30:33;;;;;;;12.68;7.13;;;0.80;99.90;;;;;;5067138;28;20619;-78
2023/12/19 08:33:01;;;;;;;7.30;6.30;;;1.00;99.90;;;;;;5067100;28;20222;-78
2023/12/19 08:35:29;;;;;;;7.32;5.90;;;1.10;99.90;;;;;;5068752;28;20192;-78
2023/12/19 08:37:56;;;;;;;6.63;5.60;;;1.10;99.90;;;;;;5067205;28;20303;-78
2023/12/19 08:40:23;;;;;;;11.57;6.10;;;1.10;99.90;;;;;;5067232;28;20214;-77
2023/12/19 08:42:53;;;;;;;7.07;5.45;;;1.20;99.90;;;;;;5072650;28;20208;-77
2023/12/19 08:45:22;;;;;;;10.07;6.95;;;1.40;99.90;;;;;;5061915;28;20610;-79
2023/12/19 08:47:50;;;;;;;7.40;5.53;;;1.40;99.90;;;;;;5066498;28;20303;-76
2023/12/19 08:50:17;;;;;;;8.30;6.25;;;1.40;99.90;;;;;;5063968;28;20200;-77
2023/12/19 08:52:44;;;;;;;5.97;5.38;;;1.40;99.90;;;;;;5066975;28;20227;-77
2023/12/19 08:55:12;;;;;;;7.53;5.40;;;1.40;99.90;;;;;;5067435;28;20214;-78
2023/12/19 08:57:40;;;;;;;7.25;5.15;;;1.60;99.90;;;;;;5066914;28;20563;-77
2023/12/19 09:00:12;;;;;;;8.68;6.85;;;1.70;99.90;;;;;;5066782;28;20204;-78
2023/12/19 09:02:42;;;;;;;6.00;5.32;;;1.60;99.90;;;;;;5063787;28;20235;-77
2023/12/19 09:05:09;;;;;;;7.35;5.93;;;1.80;99.90;;;;;;5066802;28;20290;-78
2023/12/19 09:07:36;;;;;;;8.27;5.80;;;1.80;99.90;;;;;;5064449;28;20209;-78
2023/12/19 09:10:03;;;;;;;6.82;5.32;;;1.70;99.90;;;;;;5065559;28;20280;-78
2023/12/19 09:12:30;;;;;;;6.05;5.47;;;1.70;99.90;;;;;;5065189;28;20251;-78
2023/12/19 09:14:57;;;;;;;6.50;4.75;;;1.90;99.90;;;;;;5066689;28;20204;-78
2023/12/19 09:17:26;;;;;;;6.93;5.72;;;2.00;99.90;;;;;;5066465;28;20209;-78
2023/12/19 09:19:52;;;;;;;7.00;5.93;;;2.00;99.90;;;;;;5065335;28;20208;-78
2023/12/19 09:22:19;;;;;;;6.18;5.60;;;2.00;99.90;;;;;;5072038;28;20208;-78
2023/12/19 09:24:46;;;;;;;7.68;6.22;;;1.90;99.90;;;;;;5065870;28;20213;-78
2023/12/19 09:27:13;;;;;;;6.28;5.68;;;1.90;99.90;;;;;;5067730;28;20205;-78
2023/12/19 09:29:41;;;;;;;7.40;5.97;;;2.00;99.90;;;;;;5068852;28;20208;-78
2023/12/19 09:32:07;;;;;;;8.85;6.50;;;2.10;99.90;;;;;;5068000;28;20222;-78
2023/12/19 09:34:38;;;;;;;6.18;5.38;;;2.10;99.90;;;;;;5066504;28;20200;-78
2023/12/19 09:37:05;;;;;;;6.60;5.57;;;2.10;99.90;;;;;;5068199;28;20300;-77
2023/12/19 09:39:32;;;;;;;10.23;7.30;;;2.10;99.90;;;;;;5067953;28;20210;-78
2023/12/19 09:41:59;;;;;;;9.43;6.50;;;2.20;99.90;;;;;;5067065;28;20303;-77
2023/12/19 09:44:27;;;;;;;8.38;6.90;;;2.20;99.90;;;;;;5069323;28;20201;-77
2023/12/19 09:46:54;;;;;;;8.20;6.40;;;2.30;99.90;;;;;;5068893;28;20574;-77
2023/12/19 09:49:24;;;;;;;7.55;5.35;;;2.50;99.90;;;;;;5066595;28;20623;-77
2023/12/19 09:51:55;;;;;;;5.57;5.07;;;2.60;99.90;;;;;;5067321;28;20223;-78
2023/12/19 09:54:23;;;;;;;6.90;6.30;;;2.80;99.90;;;;;;5065902;28;20301;-77
2023/12/19 09:56:52;;;;;;;7.38;5.40;;;2.80;99.90;;;;;;5069643;28;20300;-77
2023/12/19 09:59:19;;;;;;;6.75;6.15;;;2.80;99.90;;;;;;5068057;28;20203;-77
2023/12/19 10:01:46;;;;;;;6.40;5.65;;;2.80;99.90;;;;;;5067368;28;20289;-77
2023/12/19 10:04:14;;;;;;;6.15;5.32;;;2.80;99.90;;;;;;5067136;28;20766;-77
2023/12/19 10:06:42;;;;;;;16.45;5.68;;;2.70;99.90;;;;;;5066163;28;20209;-78
2023/12/19 10:09:15;;;;;;;7.15;4.97;;;2.60;99.90;;;;;;5070577;28;20206;-77
2023/12/19 10:11:43;;;;;;;10.10;7.40;;;2.50;99.90;;;;;;5065509;28;20232;-77
2023/12/19 10:14:14;;;;;;;7.30;6.70;;;2.40;99.90;;;;;;5066233;28;20202;-77
2023/12/19 10:16:41;;;;;;;8.20;7.43;;;2.30;99.90;;;;;;5075257;28;20276;-78
2023/12/19 10:19:11;;;;;;;7.28;6.57;;;2.10;99.90;;;;;;5067321;28;20663;-77
2023/12/19 10:21:38;;;;;;;6.70;5.85;;;2.10;99.90;;;;;;5066486;28;20487;-77
2023/12/19 10:24:09;;;;;;;8.95;6.90;;;2.20;99.90;;;;;;5070952;28;20586;-77
2023/12/19 10:26:37;;;;;;;8.60;6.18;;;2.20;99.90;;;;;;5077147;28;20218;-77
2023/12/19 10:29:04;;;;;;;9.77;6.55;;;2.20;99.90;;;;;;5072101;28;20602;-78
2023/12/19 10:31:31;;;;;;;12.38;7.18;;;2.20;99.90;;;;;;5075251;28;20222;-78
2023/12/19 10:33:58;;;;;;;6.97;6.28;;;2.00;99.90;;;;;;5070777;28;20569;-78
2023/12/19 10:36:27;;;;;;;13.77;7.65;;;2.10;99.90;;;;;;5069692;28;20206;-77
2023/12/19 10:38:54;;;;;;;9.07;6.50;;;1.90;99.90;;;;;;5073926;28;20214;-78
2023/12/19 10:41:23;;;;;;;9.80;6.90;;;1.70;99.90;;;;;;5071079;28;20231;-78
2023/12/19 10:43:53;;;;;;;7.13;6.05;;;1.70;99.90;;;;;;5069546;28;20554;-77
2023/12/19 10:46:24;;;;;;;10.70;8.60;;;1.70;99.90;;;;;;5070199;28;20200;-78
2023/12/19 10:48:51;;;;;;;10.18;7.70;;;1.70;99.90;;;;;;5070952;28;20598;-78
2023/12/19 10:51:29;;;;;;;7.78;6.45;;;1.60;99.90;;;;;;5068198;28;20295;-77
2023/12/19 10:54:01;;;;;;;10.95;8.30;;;1.50;99.90;;;;;;5073748;28;20245;-78
2023/12/19 10:56:34;;;;;;;9.43;7.50;;;1.50;99.90;;;;;;5067076;28;20212;-78
2023/12/19 10:59:05;;;;;;;7.43;6.55;;;1.60;99.90;;;;;;5069520;28;20215;-78
2023/12/19 11:01:38;;;;;;;14.57;7.93;;;1.50;99.90;;;;;;5070703;28;20200;-77
2023/12/19 11:04:11;;;;;;;11.82;8.07;;;1.50;99.90;;;;;;5069538;28;20556;-78
2023/12/19 11:06:42;;;;;;;8.10;6.60;;;1.60;99.90;;;;;;5073429;28;20298;-77
2023/12/19 11:09:13;;;;;;;8.55;6.90;;;1.60;99.90;;;;;;5071811;28;20285;-78
2023/12/19 11:11:42;;;;;;;11.30;8.10;;;1.60;99.90;;;;;;5068378;28;20215;-77
2023/12/19 11:14:10;;;;;;;9.02;7.05;;;1.60;99.90;;;;;;5068952;28;20204;-78
2023/12/19 11:16:42;;;;;;;8.80;7.90;;;1.50;99.90;;;;;;5069268;28;20236;-77
2023/12/19 11:19:16;;;;;;;8.13;6.90;;;1.80;99.90;;;;;;5069841;28;20204;-78
2023/12/19 11:21:49;;;;;;;14.30;6.50;;;1.90;99.90;;;;;;5073697;28;20206;-78
2023/12/19 11:24:21;;;;;;;10.88;7.68;;;1.90;99.90;;;;;;5069643;28;20215;-79
2023/12/19 11:26:54;;;;;;;8.20;6.63;;;1.90;99.90;;;;;;5069816;28;20204;-80
2023/12/19 11:29:45;;;;;;;11.63;7.88;;;1.80;99.90;;;;;;5069491;28;20633;-79
2023/12/19 11:32:37;;;;;;;9.25;8.15;;;1.90;99.90;;;;;;5068870;28;20221;-79
2023/12/19 11:35:14;;;;;;;7.53;5.85;;;2.00;99.90;;;;;;5075785;28;20677;-80
2023/12/19 11:37:43;;;;;;;10.00;6.65;;;2.00;99.90;;;;;;5071251;28;20212;-78
2023/12/19 11:40:18;;;;;;;11.90;9.10;;;2.00;99.90;;;;;;5071065;28;20204;-79
2023/12/19 11:42:49;;;;;;;9.00;6.75;;;2.20;99.90;;;;;;5070170;28;20664;-79
2023/12/19 11:45:37;;;;;;;15.90;6.60;;;2.20;99.90;;;;;;5068119;28;20208;-76
2023/12/19 11:48:34;;;;;;;11.40;8.05;;;2.00;99.90;;;;;;5070381;28;20226;-81
2023/12/19 11:51:01;;;;;;;8.77;7.57;;;1.90;99.90;;;;;;5065369;28;20203;-79
2023/12/19 11:53:28;;;;;;;7.05;6.35;;;2.10;99.90;;;;;;5088953;28;20302;-79
2023/12/19 11:56:05;;;;;;;11.13;7.78;;;1.90;99.90;;;;;;5087841;28;20303;-85
2023/12/19 11:58:32;;;;;;;10.00;8.18;;;2.00;99.90;;;;;;5087998;28;20210;-84
2023/12/19 12:01:02;;;;;;;10.68;9.43;;;2.20;99.90;;;;;;5087708;28;20224;-84
2023/12/19 12:03:29;;;;;;;10.20;7.35;;;2.30;99.90;;;;;;5088953;28;20203;-85
2023/12/19 12:05:56;;;;;;;9.50;7.47;;;2.40;99.90;;;;;;5087974;28;20294;-84
2023/12/19 12:08:23;;;;;;;22.42;8.75;;;2.60;99.90;;;;;;5088369;28;20577;-85
2023/12/19 12:11:01;;;;;;;12.98;8.60;;;2.80;99.90;;;;;;5088033;28;20235;-84
2023/12/19 12:13:29;;;;;;;8.85;6.40;;;2.80;99.90;;;;;;5088185;28;20221;-85
2023/12/19 12:15:57;;;;;;;11.93;9.25;;;2.90;99.90;;;;;;5087904;28;20233;-85
2023/12/19 12:18:26;;;;;;;10.00;7.30;;;3.00;99.90;;;;;;5088013;28;20202;-85
2023/12/19 12:20:55;;;;;;;11.82;7.18;;;3.00;99.90;;;;;;5086511;28;20267;-85
2023/12/19 12:23:22;;;;;;;10.18;7.72;;;3.10;99.90;;;;;;5083487;28;20663;-85
2023/12/19 12:25:56;;;;;;;8.68;7.20;;;3.00;99.90;;;;;;5087232;28;20199;-85
2023/12/19 12:28:26;;;;;;;9.38;6.78;;;2.90;99.90;;;;;;5087874;28;20212;-85
2023/12/19 12:30:56;;;;;;;8.93;7.55;;;2.90;99.90;;;;;;5086318;28;20561;-86
2023/12/19 12:33:27;;;;;;;14.45;9.48;;;3.00;99.90;;;;;;5087831;28;20245;-86
2023/12/19 12:35:54;;;;;;;9.57;6.38;;;3.00;99.90;;;;;;5088137;28;20228;-85
2023/12/19 12:38:23;;;;;;;8.23;6.80;;;3.10;99.90;;;;;;5088553;28;20228;-85
2023/12/19 12:40:56;;;;;;;12.63;8.20;;;3.00;99.90;;;;;;5087587;28;20302;-85
2023/12/19 12:43:36;;;;;;;8.00;6.13;;;3.10;99.90;;;;;;5082606;28;20265;-85
2023/12/19 12:46:08;;;;;;;10.43;7.70;;;3.30;99.90;;;;;;5085667;28;20201;-85
2023/12/19 12:48:37;;;;;;;9.88;7.82;;;3.50;99.90;;;;;;5087530;28;20217;-85
2023/12/19 12:51:05;;;;;;;9.00;6.70;;;3.40;99.90;;;;;;5092046;28;20209;-85
2023/12/19 12:53:34;;;;;;;11.82;8.43;;;3.40;99.90;;;;;;5092156;28;20231;-85
2023/12/19 12:56:08;;;;;;;7.22;6.53;;;3.20;99.90;;;;;;5087723;28;20289;-85
2023/12/19 12:58:36;;;;;;;7.13;6.25;;;3.10;99.90;;;;;;5084055;28;20208;-85
2023/12/19 13:01:03;;;;;;;8.38;7.28;;;3.00;99.90;;;;;;5083020;28;20716;-84